createdAt,value
2023-03-02T00:01:36.388Z,14.05
2023-03-02T00:04:05.973Z,15.85
2023-03-02T00:06:36.159Z,16.02
2023-03-02T00:09:06.181Z,13.52
2023-03-02T00:11:35.796Z,15.52
2023-03-02T00:14:02.898Z,13.55
2023-03-02T00:16:30.000Z,18.38
2023-03-02T00:18:57.732Z,17.08
2023-03-02T00:21:24.701Z,15.60
2023-03-02T00:23:52.623Z,15.18
2023-03-02T00:26:19.835Z,12.70
2023-03-02T00:28:47.064Z,15.63
2023-03-02T00:31:14.791Z,15.43
2023-03-02T00:33:42.149Z,12.60
2023-03-02T00:36:19.113Z,14.65
2023-03-02T00:38:46.585Z,16.40
2023-03-02T00:41:15.389Z,13.80
2023-03-02T00:43:42.951Z,16.85
2023-03-02T00:46:12.247Z,14.98
2023-03-02T00:48:39.803Z,14.60
2023-03-02T00:51:07.394Z,15.07
2023-03-02T00:53:36.128Z,15.15
2023-03-02T00:56:04.419Z,16.20
2023-03-02T00:58:34.174Z,14.40
2023-03-02T01:01:07.778Z,14.60
2023-03-02T01:06:06.645Z,15.32
2023-03-02T01:08:34.710Z,17.33
2023-03-02T01:11:01.639Z,14.43
2023-03-02T01:13:29.353Z,14.25
2023-03-02T01:16:03.688Z,14.98
2023-03-02T01:18:30.975Z,14.25
2023-03-02T01:21:05.913Z,13.98
2023-03-02T01:23:33.158Z,14.40
2023-03-02T01:26:00.406Z,15.63
2023-03-02T01:28:27.486Z,17.58
2023-03-02T01:30:54.579Z,16.48
2023-03-02T01:33:21.919Z,17.73
2023-03-02T01:35:49.275Z,15.70
2023-03-02T01:38:16.461Z,17.05
2023-03-02T01:40:43.619Z,18.90
2023-03-02T01:43:16.394Z,15.68
2023-03-02T01:46:03.123Z,16.70
2023-03-02T01:48:54.701Z,14.38
2023-03-02T01:51:32.145Z,15.70
2023-03-02T01:54:03.952Z,13.23
2023-03-02T01:56:34.837Z,15.00
2023-03-02T01:59:09.167Z,14.75
2023-03-02T02:01:39.724Z,14.77
2023-03-02T02:04:08.100Z,13.43
2023-03-02T02:06:39.684Z,14.20
2023-03-02T02:09:10.527Z,15.00
2023-03-02T02:11:37.821Z,14.63
2023-03-02T02:14:06.593Z,14.63
2023-03-02T02:16:35.995Z,15.88
2023-03-02T02:19:08.479Z,16.92
2023-03-02T02:21:35.841Z,14.27
2023-03-02T02:24:11.960Z,17.00
2023-03-02T02:29:13.861Z,14.38
2023-03-02T02:31:59.971Z,17.83
2023-03-02T02:34:39.749Z,16.30
2023-03-02T02:37:16.945Z,19.00
2023-03-02T02:39:47.959Z,15.85
2023-03-02T02:42:38.379Z,16.05
2023-03-02T02:45:16.154Z,16.55
2023-03-02T02:47:43.771Z,20.48
2023-03-02T02:50:26.159Z,15.98
2023-03-02T02:53:01.698Z,16.08
2023-03-02T02:55:30.443Z,15.25
2023-03-02T02:58:00.698Z,15.32
2023-03-02T03:00:29.279Z,15.27
2023-03-02T03:03:06.624Z,17.10
2023-03-02T03:05:33.738Z,17.83
2023-03-02T03:08:10.960Z,17.52
2023-03-02T03:10:41.492Z,17.75
2023-03-02T03:13:10.909Z,18.10
2023-03-02T03:15:38.481Z,16.33
2023-03-02T03:18:05.684Z,14.57
2023-03-02T03:20:33.527Z,19.85
2023-03-02T03:23:00.947Z,14.23
2023-03-02T03:25:32.192Z,17.05
2023-03-02T03:28:00.226Z,19.92
2023-03-02T03:30:27.435Z,19.00
2023-03-02T03:32:54.554Z,19.27
2023-03-02T03:35:22.112Z,21.30
2023-03-02T03:37:49.830Z,17.85
2023-03-02T03:40:18.614Z,20.35
2023-03-02T03:42:47.044Z,18.60
2023-03-02T03:45:14.266Z,19.38
2023-03-02T03:47:43.762Z,14.73
2023-03-02T03:50:11.479Z,21.67
2023-03-02T03:52:39.719Z,17.05
2023-03-02T03:55:20.769Z,18.70
2023-03-02T03:57:49.486Z,17.45
2023-03-02T04:00:18.272Z,20.40
2023-03-02T04:03:04.154Z,14.60
2023-03-02T04:05:33.148Z,19.23
2023-03-02T04:08:02.346Z,19.45
2023-03-02T04:10:30.569Z,17.95
2023-03-02T04:12:58.361Z,18.38
2023-03-02T04:15:26.456Z,19.42
2023-03-02T04:17:54.103Z,19.48
2023-03-02T04:20:24.402Z,20.00
2023-03-02T04:22:55.005Z,20.75
2023-03-02T04:25:25.018Z,16.08
2023-03-02T04:27:56.008Z,19.15
2023-03-02T04:30:27.241Z,18.27
2023-03-02T04:32:57.557Z,16.23
2023-03-02T04:35:27.057Z,15.80
2023-03-02T04:37:54.214Z,17.48
2023-03-02T04:40:21.666Z,17.42
2023-03-02T04:42:48.885Z,19.77
2023-03-02T04:45:16.255Z,18.05
2023-03-02T04:47:43.492Z,19.50
2023-03-02T04:50:14.257Z,20.55
2023-03-02T04:52:42.357Z,17.75
2023-03-02T04:55:11.573Z,19.55
2023-03-02T04:57:38.847Z,20.13
2023-03-02T05:00:09.935Z,20.88
2023-03-02T05:02:37.255Z,18.58
2023-03-02T05:05:05.106Z,22.08
2023-03-02T05:07:32.434Z,19.48
2023-03-02T05:09:59.589Z,20.83
2023-03-02T05:12:26.781Z,16.02
2023-03-02T05:14:53.789Z,20.02
2023-03-02T05:17:21.104Z,21.25
2023-03-02T05:19:48.130Z,17.65
2023-03-02T05:22:16.215Z,19.38
2023-03-02T05:24:43.185Z,20.83
2023-03-02T05:27:10.103Z,21.20
2023-03-02T05:29:37.195Z,19.30
2023-03-02T05:32:04.433Z,20.85
2023-03-02T05:34:31.412Z,19.05
2023-03-02T05:36:58.770Z,17.00
2023-03-02T05:39:27.502Z,19.23
2023-03-02T05:41:54.660Z,16.02
2023-03-02T05:44:21.912Z,20.48
2023-03-02T05:46:49.743Z,18.70
2023-03-02T05:49:16.908Z,18.10
2023-03-02T05:51:43.948Z,20.48
2023-03-02T05:54:10.980Z,20.08
2023-03-02T05:56:38.626Z,20.17
2023-03-02T05:59:05.773Z,19.35
2023-03-02T06:01:33.164Z,17.30
2023-03-02T06:04:00.360Z,20.15
2023-03-02T06:06:27.888Z,21.25
2023-03-02T06:08:55.367Z,21.02
2023-03-02T06:11:22.857Z,22.13
2023-03-02T06:13:49.903Z,22.95
2023-03-02T06:16:17.036Z,25.13
2023-03-02T06:18:44.294Z,21.25
2023-03-02T06:21:11.301Z,20.65
2023-03-02T06:23:38.473Z,20.63
2023-03-02T06:26:13.083Z,21.98
2023-03-02T06:28:51.967Z,26.33
2023-03-02T06:31:19.504Z,23.20
2023-03-02T06:33:46.467Z,22.08
2023-03-02T06:36:15.324Z,28.20
2023-03-02T06:38:42.667Z,31.63
2023-03-02T06:41:09.752Z,26.13
2023-03-02T06:43:36.913Z,26.77
2023-03-02T06:46:04.220Z,23.88
2023-03-02T06:48:31.456Z,27.52
2023-03-02T06:50:58.594Z,33.10
2023-03-02T06:53:25.756Z,34.42
2023-03-02T06:55:53.201Z,24.67
2023-03-02T06:58:20.445Z,22.95
2023-03-02T07:00:47.776Z,22.38
2023-03-02T07:03:15.012Z,23.05
2023-03-02T07:05:43.928Z,27.50
2023-03-02T07:08:12.179Z,27.05
2023-03-02T07:10:39.246Z,27.45
2023-03-02T07:13:08.916Z,25.95
2023-03-02T07:15:38.773Z,32.15
2023-03-02T07:18:06.042Z,27.50
2023-03-02T07:20:34.270Z,28.80
2023-03-02T07:23:01.314Z,28.98
2023-03-02T07:25:28.380Z,28.10
2023-03-02T07:27:55.607Z,29.33
2023-03-02T07:30:22.952Z,27.38
2023-03-02T07:32:50.095Z,28.98
2023-03-02T07:35:17.562Z,28.52
2023-03-02T07:37:44.918Z,31.10
2023-03-02T07:40:12.814Z,30.52
2023-03-02T07:42:39.868Z,25.95
2023-03-02T07:45:08.090Z,25.45
2023-03-02T07:47:35.183Z,28.83
2023-03-02T07:50:02.374Z,26.00
2023-03-02T07:52:31.033Z,29.70
2023-03-02T07:54:58.086Z,25.83
2023-03-02T07:57:25.273Z,28.10
2023-03-02T07:59:57.543Z,28.20
2023-03-02T08:02:25.847Z,29.63
2023-03-02T08:04:53.392Z,28.45
2023-03-02T08:07:20.420Z,28.77
2023-03-02T08:09:49.917Z,32.28
2023-03-02T08:12:18.229Z,32.63
2023-03-02T08:14:47.867Z,30.73
2023-03-02T08:17:14.931Z,31.92
2023-03-02T08:19:41.929Z,29.48
2023-03-02T08:22:08.919Z,29.90
2023-03-02T08:24:36.009Z,30.20
2023-03-02T08:27:04.849Z,31.88
2023-03-02T08:29:32.929Z,31.52
2023-03-02T08:32:00.691Z,30.10
2023-03-02T08:34:27.748Z,34.20
2023-03-02T08:36:54.959Z,31.70
2023-03-02T08:39:23.668Z,29.65
2023-03-02T08:41:52.703Z,29.48
2023-03-02T08:44:22.430Z,30.60
2023-03-02T08:46:51.032Z,29.05
2023-03-02T08:49:19.611Z,31.52
2023-03-02T08:51:49.101Z,33.17
2023-03-02T08:54:17.148Z,30.55
2023-03-02T08:56:44.595Z,29.42
2023-03-02T08:59:13.811Z,32.90
2023-03-02T09:01:41.667Z,29.85
2023-03-02T09:04:10.564Z,29.25
2023-03-02T09:06:40.253Z,31.23
2023-03-02T09:09:08.272Z,30.35
2023-03-02T09:11:36.359Z,29.98
2023-03-02T09:14:04.383Z,28.10
2023-03-02T09:16:32.117Z,31.10
2023-03-02T09:19:00.299Z,28.30
2023-03-02T09:21:30.266Z,30.10
2023-03-02T09:23:58.541Z,28.00
2023-03-02T09:26:28.973Z,29.23
2023-03-02T09:28:56.843Z,30.67
2023-03-02T09:31:25.583Z,30.42
2023-03-02T09:33:53.191Z,28.65
2023-03-02T09:36:22.730Z,28.38
2023-03-02T09:38:49.878Z,28.63
2023-03-02T09:41:20.004Z,28.15
2023-03-02T09:44:11.421Z,27.33
2023-03-02T09:46:59.992Z,27.85
2023-03-02T09:49:34.427Z,27.33
2023-03-02T09:52:36.549Z,26.05
2023-03-02T09:55:23.704Z,25.83
2023-03-02T09:57:51.320Z,26.88
2023-03-02T10:00:40.491Z,26.38
2023-03-02T10:03:18.764Z,25.33
2023-03-02T10:05:48.605Z,23.65
2023-03-02T10:08:21.365Z,23.88
2023-03-02T10:11:02.492Z,18.63
2023-03-02T10:13:53.810Z,22.05
2023-03-02T10:16:22.122Z,20.05
2023-03-02T10:18:58.256Z,23.58
2023-03-02T10:21:47.645Z,23.70
2023-03-02T10:24:41.366Z,21.23
2023-03-02T10:27:20.680Z,20.13
2023-03-02T10:29:58.980Z,19.00
2023-03-02T10:32:33.038Z,19.35
2023-03-02T10:35:10.668Z,21.23
2023-03-02T10:37:38.841Z,19.90
2023-03-02T10:40:11.628Z,20.10
2023-03-02T10:42:43.592Z,19.58
2023-03-02T10:45:32.749Z,20.50
2023-03-02T10:48:13.372Z,16.45
2023-03-02T10:50:43.426Z,19.63
2023-03-02T10:53:18.608Z,19.77
2023-03-02T10:55:52.604Z,18.02
2023-03-02T10:58:31.765Z,18.77
2023-03-02T11:01:15.130Z,18.45
2023-03-02T11:03:42.413Z,14.98
2023-03-02T11:06:28.939Z,17.48
2023-03-02T11:09:06.997Z,19.67
2023-03-02T11:11:35.044Z,18.60
2023-03-02T11:14:16.667Z,17.35
2023-03-02T11:16:43.958Z,14.70
2023-03-02T11:19:41.073Z,13.20
2023-03-02T11:22:30.301Z,14.55
2023-03-02T11:25:00.217Z,14.55
2023-03-02T11:27:30.637Z,13.07
2023-03-02T11:30:27.218Z,15.25
2023-03-02T11:36:02.973Z,19.10
2023-03-02T11:38:37.117Z,17.55
2023-03-02T11:41:14.179Z,15.93
2023-03-02T11:43:41.521Z,16.35
2023-03-02T11:46:23.806Z,16.08
2023-03-02T11:48:56.395Z,16.88
2023-03-02T11:51:35.450Z,16.25
2023-03-02T11:54:11.560Z,17.42
2023-03-02T11:56:39.979Z,16.10
2023-03-02T11:59:28.906Z,18.38
2023-03-02T12:01:59.724Z,17.40
2023-03-02T12:04:34.328Z,18.02
2023-03-02T12:07:04.726Z,18.92
2023-03-02T12:09:35.832Z,18.27
2023-03-02T12:12:36.314Z,18.08
2023-03-02T12:15:04.199Z,18.27
2023-03-02T12:17:35.150Z,16.77
2023-03-02T12:20:08.552Z,15.60
2023-03-02T12:22:37.803Z,16.63
2023-03-02T12:25:20.201Z,17.50
2023-03-02T12:27:49.551Z,16.45
2023-03-02T12:30:18.735Z,17.23
2023-03-02T12:32:58.473Z,14.68
2023-03-02T12:35:26.397Z,14.45
2023-03-02T12:38:08.024Z,15.13
2023-03-02T12:40:38.153Z,17.50
2023-03-02T12:43:24.036Z,16.60
2023-03-02T12:46:00.001Z,14.57
2023-03-02T12:48:40.002Z,16.70
2023-03-02T12:51:16.809Z,13.10
2023-03-02T12:53:44.114Z,15.43
2023-03-02T12:56:25.530Z,14.27
2023-03-02T12:58:54.091Z,17.25
2023-03-02T13:01:29.961Z,11.35
2023-03-02T13:03:57.734Z,12.68
2023-03-02T13:06:29.973Z,13.05
2023-03-02T13:08:59.262Z,14.43
2023-03-02T13:11:35.188Z,13.52
2023-03-02T13:14:03.880Z,15.57
2023-03-02T13:16:34.022Z,12.98
2023-03-02T13:19:05.771Z,12.93
2023-03-02T13:21:38.368Z,14.00
2023-03-02T13:24:28.568Z,13.25
2023-03-02T13:26:58.330Z,15.80
2023-03-02T13:29:31.921Z,14.77
2023-03-02T13:32:29.130Z,14.73
2023-03-02T13:34:59.135Z,14.20
2023-03-02T13:37:43.752Z,12.25
2023-03-02T13:40:23.300Z,15.75
2023-03-02T13:42:51.557Z,17.20
2023-03-02T13:45:28.054Z,14.00
2023-03-02T13:47:58.010Z,13.93
2023-03-02T13:50:26.626Z,13.18
2023-03-02T13:52:56.837Z,13.50
2023-03-02T13:55:24.605Z,12.80
2023-03-02T13:57:53.192Z,13.77
2023-03-02T14:00:29.969Z,12.95
2023-03-02T14:02:57.030Z,15.35
2023-03-02T14:05:27.245Z,13.63
2023-03-02T14:07:54.495Z,12.98
2023-03-02T14:10:21.974Z,13.00
2023-03-02T14:12:58.399Z,14.45
2023-03-02T14:15:25.803Z,15.10
2023-03-02T14:17:52.962Z,15.07
2023-03-02T14:20:20.810Z,14.55
2023-03-02T14:22:52.871Z,15.43
2023-03-02T14:25:20.657Z,14.13
2023-03-02T14:27:47.802Z,15.27
2023-03-02T14:30:17.072Z,15.60
2023-03-02T14:32:44.221Z,19.20
2023-03-02T14:35:13.689Z,14.98
2023-03-02T14:37:47.110Z,19.70
2023-03-02T14:40:17.778Z,14.15
2023-03-02T14:42:45.081Z,14.07
2023-03-02T14:45:12.693Z,18.27
2023-03-02T14:47:40.121Z,14.35
2023-03-02T14:50:07.551Z,15.35
2023-03-02T14:52:48.325Z,14.23
2023-03-02T14:55:25.851Z,14.13
2023-03-02T14:58:05.038Z,15.95
2023-03-02T15:00:32.424Z,15.57
2023-03-02T15:02:59.821Z,13.82
2023-03-02T15:05:26.941Z,14.00
2023-03-02T15:07:58.801Z,17.33
2023-03-02T15:10:26.351Z,15.57
2023-03-02T15:12:53.624Z,19.15
2023-03-02T15:15:20.789Z,15.63
2023-03-02T15:17:47.901Z,16.48
2023-03-02T15:20:16.844Z,17.23
2023-03-02T15:22:44.910Z,19.00
2023-03-02T15:25:12.150Z,18.85
2023-03-02T15:27:41.562Z,17.50
2023-03-02T15:30:09.447Z,18.50
2023-03-02T15:32:37.819Z,16.55
2023-03-02T15:35:05.267Z,19.85
2023-03-02T15:37:33.417Z,20.15
2023-03-02T15:40:00.616Z,22.15
2023-03-02T15:42:27.811Z,22.08
2023-03-02T15:44:55.266Z,22.88
2023-03-02T15:47:23.460Z,20.73
2023-03-02T15:49:51.902Z,21.27
2023-03-02T15:52:20.079Z,20.58
2023-03-02T15:54:47.349Z,19.33
2023-03-02T15:57:14.386Z,18.63
2023-03-02T15:59:41.632Z,20.17
2023-03-02T16:02:09.941Z,21.52
2023-03-02T16:04:37.998Z,21.42
2023-03-02T16:07:05.045Z,18.83
2023-03-02T16:09:32.328Z,21.23
2023-03-02T16:11:59.423Z,20.98
2023-03-02T16:14:26.571Z,22.20
2023-03-02T16:16:53.720Z,18.88
2023-03-02T16:19:21.100Z,20.10
2023-03-02T16:21:48.728Z,22.88
2023-03-02T16:24:17.172Z,21.42
2023-03-02T16:26:45.862Z,20.70
2023-03-02T16:29:13.761Z,20.30
2023-03-02T16:31:41.353Z,19.02
2023-03-02T16:34:09.400Z,20.15
2023-03-02T16:36:38.842Z,21.15
2023-03-02T16:39:08.389Z,20.50
2023-03-02T16:41:35.965Z,19.98
2023-03-02T16:44:04.068Z,17.92
2023-03-02T16:46:36.381Z,17.25
2023-03-02T16:49:04.345Z,16.40
2023-03-02T16:51:31.418Z,18.65
2023-03-02T16:53:58.745Z,20.02
2023-03-02T16:56:26.450Z,18.45
2023-03-02T16:58:54.852Z,17.45
2023-03-02T17:01:23.269Z,22.92
2023-03-02T17:03:53.149Z,21.85
2023-03-02T17:06:22.822Z,15.65
2023-03-02T17:08:50.930Z,17.50
2023-03-02T17:11:20.207Z,14.95
2023-03-02T17:13:47.786Z,17.05
2023-03-02T17:16:16.922Z,17.63
2023-03-02T17:18:47.028Z,18.73
2023-03-02T17:21:16.539Z,18.58
2023-03-02T17:23:43.927Z,23.85
2023-03-02T17:26:12.189Z,40.80
2023-03-02T17:28:39.508Z,41.38
2023-03-02T17:31:07.219Z,89.32
2023-03-02T17:33:34.553Z,96.40
2023-03-02T17:36:07.533Z,73.35
2023-03-02T17:38:34.696Z,43.65
2023-03-02T17:41:03.792Z,27.67
2023-03-02T17:43:33.812Z,20.75
2023-03-02T17:46:11.148Z,18.02
2023-03-02T17:48:38.589Z,18.58
2023-03-02T17:51:05.937Z,17.33
2023-03-02T17:53:33.158Z,19.15
2023-03-02T17:56:00.230Z,18.50
2023-03-02T17:58:33.201Z,19.48
2023-03-02T18:01:09.997Z,18.10
2023-03-02T18:03:37.862Z,17.67
2023-03-02T18:06:05.920Z,16.65
2023-03-02T18:08:33.296Z,15.70
2023-03-02T18:11:00.840Z,17.55
2023-03-02T18:13:28.117Z,18.50
2023-03-02T18:15:55.294Z,17.92
2023-03-02T18:18:23.105Z,18.67
2023-03-02T18:20:50.107Z,17.77
2023-03-02T18:23:17.112Z,19.65
2023-03-02T18:25:45.477Z,20.92
2023-03-02T18:28:12.536Z,22.25
2023-03-02T18:30:39.828Z,22.88
2023-03-02T18:33:08.509Z,23.98
2023-03-02T18:35:35.652Z,22.95
2023-03-02T18:38:02.725Z,22.52
2023-03-02T18:40:29.914Z,22.05
2023-03-02T18:42:57.337Z,20.95
2023-03-02T18:45:28.173Z,21.75
2023-03-02T18:47:56.487Z,24.65
2023-03-02T18:50:24.753Z,24.33
2023-03-02T18:52:53.100Z,22.25
2023-03-02T18:55:21.451Z,27.65
2023-03-02T18:57:48.651Z,24.10
2023-03-02T19:00:19.291Z,23.95
2023-03-02T19:02:46.576Z,26.48
2023-03-02T19:05:13.829Z,26.65
2023-03-02T19:07:41.000Z,26.50
2023-03-02T19:10:08.775Z,27.88
2023-03-02T19:12:35.771Z,24.08
2023-03-02T19:15:03.849Z,26.38
2023-03-02T19:17:31.170Z,28.60
2023-03-02T19:19:58.865Z,28.65
2023-03-02T19:22:26.113Z,31.90
2023-03-02T19:24:53.966Z,30.25
2023-03-02T19:27:21.029Z,34.08
2023-03-02T19:29:48.078Z,32.05
2023-03-02T19:32:15.117Z,33.78
2023-03-02T19:34:42.874Z,32.80
2023-03-02T19:37:09.928Z,31.77
2023-03-02T19:39:36.993Z,37.13
2023-03-02T19:42:04.167Z,35.33
2023-03-02T19:44:31.801Z,32.05
2023-03-02T19:46:59.095Z,31.67
2023-03-02T19:49:26.438Z,36.25
2023-03-02T19:51:53.626Z,35.03
2023-03-02T19:54:20.619Z,35.17
2023-03-02T19:56:53.447Z,36.20
2023-03-02T19:59:22.359Z,35.42
2023-03-02T20:01:52.813Z,34.10
2023-03-02T20:04:19.946Z,32.92
2023-03-02T20:06:47.030Z,30.73
2023-03-02T20:09:19.550Z,33.47
2023-03-02T20:11:47.667Z,33.85
2023-03-02T20:14:27.645Z,35.88
2023-03-02T20:17:01.018Z,30.80
2023-03-02T20:19:28.362Z,35.20
2023-03-02T20:21:55.484Z,34.47
2023-03-02T20:24:22.438Z,34.88
2023-03-02T20:26:49.962Z,34.50
2023-03-02T20:29:17.813Z,28.92
2023-03-02T20:31:45.534Z,35.00
2023-03-02T20:34:16.640Z,30.85
2023-03-02T20:36:44.593Z,32.75
2023-03-02T20:39:15.737Z,31.20
2023-03-02T20:41:43.243Z,33.15
2023-03-02T20:44:13.365Z,31.15
2023-03-02T20:46:45.591Z,29.52
2023-03-02T20:49:15.465Z,31.13
2023-03-02T20:51:49.288Z,32.42
2023-03-02T20:54:16.915Z,30.95
2023-03-02T20:56:43.995Z,31.83
2023-03-02T20:59:11.321Z,31.17
2023-03-02T21:01:38.418Z,35.88
2023-03-02T21:04:05.746Z,32.83
2023-03-02T21:06:34.619Z,31.27
2023-03-02T21:09:04.625Z,31.40
2023-03-02T21:11:32.110Z,32.70
2023-03-02T21:13:59.536Z,33.60
2023-03-02T21:16:30.782Z,31.73
2023-03-02T21:18:58.430Z,31.58
2023-03-02T21:21:40.374Z,33.03
2023-03-02T21:24:10.063Z,33.85
2023-03-02T21:26:37.263Z,36.85
2023-03-02T21:29:05.481Z,35.53
2023-03-02T21:31:33.150Z,30.80
2023-03-02T21:34:00.858Z,32.92
2023-03-02T21:36:28.633Z,32.83
2023-03-02T21:38:56.176Z,34.00
2023-03-02T21:41:23.659Z,34.45
2023-03-02T21:43:50.968Z,35.47
2023-03-02T21:46:21.739Z,37.20
2023-03-02T21:48:51.514Z,35.30
2023-03-02T21:51:19.496Z,32.85
2023-03-02T21:53:46.887Z,36.00
2023-03-02T21:56:22.532Z,34.90
2023-03-02T21:58:55.285Z,37.85
2023-03-02T22:01:24.037Z,40.35
2023-03-02T22:03:51.302Z,42.20
2023-03-02T22:06:27.374Z,37.45
2023-03-02T22:11:37.390Z,42.42
2023-03-02T22:14:16.253Z,38.38
2023-03-02T22:16:47.330Z,39.80
2023-03-02T22:19:24.756Z,39.53
2023-03-02T22:21:52.650Z,42.60
2023-03-02T22:24:29.207Z,45.63
2023-03-02T22:27:05.396Z,47.47
2023-03-02T22:29:44.256Z,41.67
2023-03-02T22:32:24.513Z,39.63
2023-03-02T22:35:08.490Z,44.03
2023-03-02T22:37:35.728Z,43.63
2023-03-02T22:40:17.488Z,38.03
2023-03-02T22:42:44.631Z,43.50
2023-03-02T22:45:22.361Z,45.03
2023-03-02T22:47:51.527Z,45.50
2023-03-02T22:50:23.218Z,45.25
2023-03-02T22:52:51.126Z,44.72
2023-03-02T22:55:36.398Z,40.33
2023-03-02T22:58:31.622Z,42.22
2023-03-02T23:01:00.501Z,49.25
2023-03-02T23:03:39.927Z,45.35
2023-03-02T23:06:31.572Z,47.72
2023-03-02T23:09:05.822Z,42.20
2023-03-02T23:11:38.030Z,45.28
2023-03-02T23:14:35.947Z,45.33
2023-03-02T23:17:14.562Z,44.15
2023-03-02T23:19:41.485Z,40.47
2023-03-02T23:22:09.578Z,45.40
2023-03-02T23:24:36.835Z,42.28
2023-03-02T23:27:04.546Z,40.15
2023-03-02T23:29:32.095Z,42.17
2023-03-02T23:31:59.161Z,45.03
2023-03-02T23:34:26.270Z,44.38
2023-03-02T23:36:53.366Z,44.55
2023-03-02T23:39:20.360Z,42.28
2023-03-02T23:41:47.717Z,40.33
2023-03-02T23:44:14.854Z,41.97
2023-03-02T23:46:42.045Z,41.42
2023-03-02T23:49:09.094Z,40.30
2023-03-02T23:51:36.359Z,40.97
2023-03-02T23:54:04.853Z,43.10
2023-03-02T23:56:32.281Z,41.15
2023-03-02T23:58:59.878Z,46.05
